sensor_id;sensor_type;location;lat;lon;timestamp;P1;P2;P0
79590;PMS5003;69070;51.598;-3.776;2023-04-05T15:02:07;19;19;
79590;PMS5003;69070;51.598;-3.776;2023-04-05T15:04:32;19;19;
79590;PMS5003;69070;51.598;-3.776;2023-04-05T15:06:58;17;17;
79590;PMS5003;69070;51.598;-3.776;2023-04-05T15:18:28;21;21;
79590;PMS5003;69070;51.598;-3.776;2023-04-05T15:20:54;19;18;
79590;PMS5003;69070;51.598;-3.776;2023-04-05T15:23:20;19;14;
79590;PMS5003;69070;51.598;-3.776;2023-04-05T15:25:45;15;15;
79590;PMS5003;69070;51.598;-3.776;2023-04-05T15:28:10;20;20;
79590;PMS5003;69070;51.598;-3.776;2023-04-05T15:30:36;31;29;
79590;PMS5003;69070;51.598;-3.776;2023-04-05T15:33:01;29;29;
79590;PMS5003;69070;51.598;-3.776;2023-04-05T15:35:27;32;29;
79590;PMS5003;69070;51.598;-3.776;2023-04-05T15:37:52;28;28;
79590;PMS5003;69070;51.598;-3.776;2023-04-05T15:40:18;26;26;
79590;PMS5003;69070;51.598;-3.776;2023-04-05T15:42:44;24;24;
79590;PMS5003;69070;51.598;-3.776;2023-04-05T15:45:10;29;28;
79590;PMS5003;69070;51.598;-3.776;2023-04-05T15:47:34;19;19;
79590;PMS5003;69070;51.598;-3.776;2023-04-05T15:50:00;15;14;
79590;PMS5003;69070;51.598;-3.776;2023-04-05T15:52:25;15;15;
79590;PMS5003;69070;51.598;-3.776;2023-04-05T15:54:50;16;16;
79590;PMS5003;69070;51.598;-3.776;2023-04-05T15:57:15;12;12;
79590;PMS5003;69070;51.598;-3.776;2023-04-05T15:59:41;14;14;
79590;PMS5003;69070;51.598;-3.776;2023-04-05T16:02:07;12;12;
79590;PMS5003;69070;51.598;-3.776;2023-04-05T16:04:31;17;17;
79590;PMS5003;69070;51.598;-3.776;2023-04-05T16:06:56;27;26;
79590;PMS5003;69070;51.598;-3.776;2023-04-05T16:09:21;26;23;
79590;PMS5003;69070;51.598;-3.776;2023-04-05T16:11:47;21;19;
79590;PMS5003;69070;51.598;-3.776;2023-04-05T16:14:12;19;18;
79590;PMS5003;69070;51.598;-3.776;2023-04-05T16:16:42;19;18;
79590;PMS5003;69070;51.598;-3.776;2023-04-05T16:19:02;17;14;
79590;PMS5003;69070;51.598;-3.776;2023-04-05T16:21:28;21;18;
79590;PMS5003;69070;51.598;-3.776;2023-04-05T16:23:53;15;13;
79590;PMS5003;69070;51.598;-3.776;2023-04-05T16:26:18;17;16;
79590;PMS5003;69070;51.598;-3.776;2023-04-05T16:28:43;13;12;
79590;PMS5003;69070;51.598;-3.776;2023-04-05T16:31:09;12;12;
79590;PMS5003;69070;51.598;-3.776;2023-04-05T16:33:35;12;11;
79590;PMS5003;69070;51.598;-3.776;2023-04-05T16:35:59;17;16;
79590;PMS5003;69070;51.598;-3.776;2023-04-05T16:38:24;16;16;
79590;PMS5003;69070;51.598;-3.776;2023-04-05T16:47:23;20;20;
79590;PMS5003;69070;51.598;-3.776;2023-04-05T16:49:47;18;18;
79590;PMS5003;69070;51.598;-3.776;2023-04-05T16:52:13;28;28;
79590;PMS5003;69070;51.598;-3.776;2023-04-05T16:54:38;40;38;
79590;PMS5003;69070;51.598;-3.776;2023-04-05T16:57:03;34;34;
79590;PMS5003;69070;51.598;-3.776;2023-04-05T16:59:29;30;29;
79590;PMS5003;69070;51.598;-3.776;2023-04-05T17:01:54;30;30;
79590;PMS5003;69070;51.598;-3.776;2023-04-05T17:04:19;21;21;
79590;PMS5003;69070;51.598;-3.776;2023-04-05T17:06:45;24;24;
79590;PMS5003;69070;51.598;-3.776;2023-04-05T17:09:11;23;22;
79590;PMS5003;69070;51.598;-3.776;2023-04-05T17:11:36;30;29;
79590;PMS5003;69070;51.598;-3.776;2023-04-05T17:14:01;30;30;
79590;PMS5003;69070;51.598;-3.776;2023-04-05T17:16:26;35;32;
79590;PMS5003;69070;51.598;-3.776;2023-04-05T17:18:52;25;24;
79590;PMS5003;69070;51.598;-3.776;2023-04-05T17:21:18;32;31;
79590;PMS5003;69070;51.598;-3.776;2023-04-05T17:23:43;32;32;
79590;PMS5003;69070;51.598;-3.776;2023-04-05T17:26:09;35;34;
79590;PMS5003;69070;51.598;-3.776;2023-04-05T17:28:34;43;41;
79590;PMS5003;69070;51.598;-3.776;2023-04-05T17:30:59;53;49;
79590;PMS5003;69070;51.598;-3.776;2023-04-05T17:33:25;61;61;
79590;PMS5003;69070;51.598;-3.776;2023-04-05T17:35:51;54;52;
79590;PMS5003;69070;51.598;-3.776;2023-04-05T17:38:16;82;82;
79590;PMS5003;69070;51.598;-3.776;2023-04-05T17:40:42;65;63;
79590;PMS5003;69070;51.598;-3.776;2023-04-05T17:43:07;90;87;
79590;PMS5003;69070;51.598;-3.776;2023-04-05T17:45:33;77;72;
79590;PMS5003;69070;51.598;-3.776;2023-04-05T17:47:58;77;70;
79590;PMS5003;69070;51.598;-3.776;2023-04-05T17:50:24;83;78;
79590;PMS5003;69070;51.598;-3.776;2023-04-05T17:52:49;66;64;
79590;PMS5003;69070;51.598;-3.776;2023-04-05T17:55:15;52;50;
79590;PMS5003;69070;51.598;-3.776;2023-04-05T17:57:41;64;61;
79590;PMS5003;69070;51.598;-3.776;2023-04-05T18:00:07;78;73;
79590;PMS5003;69070;51.598;-3.776;2023-04-05T18:02:32;73;68;
79590;PMS5003;69070;51.598;-3.776;2023-04-05T18:04:57;64;62;
79590;PMS5003;69070;51.598;-3.776;2023-04-05T18:07:22;46;43;
79590;PMS5003;69070;51.598;-3.776;2023-04-05T18:09:48;35;30;
79590;PMS5003;69070;51.598;-3.776;2023-04-05T18:12:13;41;40;
79590;PMS5003;69070;51.598;-3.776;2023-04-05T18:14:38;53;50;
79590;PMS5003;69070;51.598;-3.776;2023-04-05T18:17:04;62;61;
79590;PMS5003;69070;51.598;-3.776;2023-04-05T18:19:29;77;71;
79590;PMS5003;69070;51.598;-3.776;2023-04-05T18:21:55;88;87;
79590;PMS5003;69070;51.598;-3.776;2023-04-05T18:24:20;64;63;
79590;PMS5003;69070;51.598;-3.776;2023-04-05T18:26:46;88;83;
79590;PMS5003;69070;51.598;-3.776;2023-04-05T18:29:12;83;79;
79590;PMS5003;69070;51.598;-3.776;2023-04-05T18:31:38;49;48;
79590;PMS5003;69070;51.598;-3.776;2023-04-05T18:34:03;66;64;
79590;PMS5003;69070;51.598;-3.776;2023-04-05T18:36:28;97;93;
79590;PMS5003;69070;51.598;-3.776;2023-04-05T18:38:53;80;78;
79590;PMS5003;69070;51.598;-3.776;2023-04-05T18:41:19;56;54;
79590;PMS5003;69070;51.598;-3.776;2023-04-05T18:43:44;57;57;
79590;PMS5003;69070;51.598;-3.776;2023-04-05T18:46:09;57;55;
79590;PMS5003;69070;51.598;-3.776;2023-04-05T18:48:39;53;49;
79590;PMS5003;69070;51.598;-3.776;2023-04-05T18:51:00;25;23;
79590;PMS5003;69070;51.598;-3.776;2023-04-05T18:53:25;24;22;
79590;PMS5003;69070;51.598;-3.776;2023-04-05T18:55:51;13;13;
79590;PMS5003;69070;51.598;-3.776;2023-04-05T18:58:17;19;19;
79590;PMS5003;69070;51.598;-3.776;2023-04-05T19:00:42;10;10;
79590;PMS5003;69070;51.598;-3.776;2023-04-05T19:03:07;13;11;
79590;PMS5003;69070;51.598;-3.776;2023-04-05T19:05:33;14;12;
79590;PMS5003;69070;51.598;-3.776;2023-04-05T19:07:58;12;12;
79590;PMS5003;69070;51.598;-3.776;2023-04-05T19:10:24;13;13;
79590;PMS5003;69070;51.598;-3.776;2023-04-05T19:12:49;12;12;
79590;PMS5003;69070;51.598;-3.776;2023-04-05T19:15:14;7;7;
79590;PMS5003;69070;51.598;-3.776;2023-04-05T19:17:39;10;10;
79590;PMS5003;69070;51.598;-3.776;2023-04-05T19:20:04;7;7;
79590;PMS5003;69070;51.598;-3.776;2023-04-05T19:22:29;8;8;
79590;PMS5003;69070;51.598;-3.776;2023-04-05T19:24:54;14;14;
79590;PMS5003;69070;51.598;-3.776;2023-04-05T19:27:20;7;7;
79590;PMS5003;69070;51.598;-3.776;2023-04-05T19:29:44;7;7;
79590;PMS5003;69070;51.598;-3.776;2023-04-05T19:32:10;8;8;
79590;PMS5003;69070;51.598;-3.776;2023-04-05T19:34:35;12;12;
79590;PMS5003;69070;51.598;-3.776;2023-04-05T19:37:00;10;10;
79590;PMS5003;69070;51.598;-3.776;2023-04-05T19:39:25;9;9;
79590;PMS5003;69070;51.598;-3.776;2023-04-05T19:41:50;9;9;
79590;PMS5003;69070;51.598;-3.776;2023-04-05T19:46:40;11;11;
79590;PMS5003;69070;51.598;-3.776;2023-04-05T19:49:07;8;8;
79590;PMS5003;69070;51.598;-3.776;2023-04-05T19:51:31;7;7;
79590;PMS5003;69070;51.598;-3.776;2023-04-05T19:53:57;11;10;
79590;PMS5003;69070;51.598;-3.776;2023-04-05T19:56:23;12;9;
79590;PMS5003;69070;51.598;-3.776;2023-04-05T19:58:49;7;7;
79590;PMS5003;69070;51.598;-3.776;2023-04-05T20:03:39;9;8;
79590;PMS5003;69070;51.598;-3.776;2023-04-05T20:06:05;9;9;
79590;PMS5003;69070;51.598;-3.776;2023-04-05T20:08:29;12;11;
79590;PMS5003;69070;51.598;-3.776;2023-04-05T20:10:54;11;11;
79590;PMS5003;69070;51.598;-3.776;2023-04-05T20:13:19;9;9;
79590;PMS5003;69070;51.598;-3.776;2023-04-05T20:15:45;11;10;
79590;PMS5003;69070;51.598;-3.776;2023-04-05T20:18:10;11;11;
79590;PMS5003;69070;51.598;-3.776;2023-04-05T20:20:36;10;10;
79590;PMS5003;69070;51.598;-3.776;2023-04-05T20:23:01;10;10;
79590;PMS5003;69070;51.598;-3.776;2023-04-05T20:25:35;6;6;
79590;PMS5003;69070;51.598;-3.776;2023-04-05T20:27:52;10;8;
79590;PMS5003;69070;51.598;-3.776;2023-04-05T20:30:16;13;13;
79590;PMS5003;69070;51.598;-3.776;2023-04-05T20:32:42;11;11;
79590;PMS5003;69070;51.598;-3.776;2023-04-05T20:35:07;10;10;
79590;PMS5003;69070;51.598;-3.776;2023-04-05T20:37:32;7;7;
79590;PMS5003;69070;51.598;-3.776;2023-04-05T20:39:57;9;9;
79590;PMS5003;69070;51.598;-3.776;2023-04-05T20:42:23;11;10;
79590;PMS5003;69070;51.598;-3.776;2023-04-05T20:44:48;7;7;
79590;PMS5003;69070;51.598;-3.776;2023-04-05T20:47:14;7;7;
79590;PMS5003;69070;51.598;-3.776;2023-04-05T20:49:39;8;8;
79590;PMS5003;69070;51.598;-3.776;2023-04-05T20:52:04;11;9;
79590;PMS5003;69070;51.598;-3.776;2023-04-05T20:54:30;9;9;
79590;PMS5003;69070;51.598;-3.776;2023-04-05T20:56:55;9;9;
79590;PMS5003;69070;51.598;-3.776;2023-04-05T20:59:20;10;9;
79590;PMS5003;69070;51.598;-3.776;2023-04-05T21:01:45;7;7;
79590;PMS5003;69070;51.598;-3.776;2023-04-05T21:04:10;12;12;
79590;PMS5003;69070;51.598;-3.776;2023-04-05T21:06:35;8;8;
79590;PMS5003;69070;51.598;-3.776;2023-04-05T21:09:00;8;8;
79590;PMS5003;69070;51.598;-3.776;2023-04-05T21:11:26;10;9;
79590;PMS5003;69070;51.598;-3.776;2023-04-05T21:13:51;9;9;
79590;PMS5003;69070;51.598;-3.776;2023-04-05T21:16:16;8;8;
79590;PMS5003;69070;51.598;-3.776;2023-04-05T21:18:41;6;6;
79590;PMS5003;69070;51.598;-3.776;2023-04-05T21:21:07;8;7;
79590;PMS5003;69070;51.598;-3.776;2023-04-05T21:23:32;9;9;
79590;PMS5003;69070;51.598;-3.776;2023-04-05T21:25:57;8;7;
79590;PMS5003;69070;51.598;-3.776;2023-04-05T21:28:22;7;7;
79590;PMS5003;69070;51.598;-3.776;2023-04-05T21:30:47;7;7;
79590;PMS5003;69070;51.598;-3.776;2023-04-05T21:33:12;10;10;
79590;PMS5003;69070;51.598;-3.776;2023-04-05T21:35:37;8;8;
79590;PMS5003;69070;51.598;-3.776;2023-04-05T21:38:03;8;8;
79590;PMS5003;69070;51.598;-3.776;2023-04-05T21:40:28;7;7;
79590;PMS5003;69070;51.598;-3.776;2023-04-05T21:42:53;8;8;
79590;PMS5003;69070;51.598;-3.776;2023-04-05T21:45:18;8;8;
79590;PMS5003;69070;51.598;-3.776;2023-04-05T21:47:43;10;8;
79590;PMS5003;69070;51.598;-3.776;2023-04-05T21:50:08;6;6;
79590;PMS5003;69070;51.598;-3.776;2023-04-05T21:52:33;10;9;
79590;PMS5003;69070;51.598;-3.776;2023-04-05T21:54:58;7;7;
79590;PMS5003;69070;51.598;-3.776;2023-04-05T21:57:24;7;7;
79590;PMS5003;69070;51.598;-3.776;2023-04-05T21:59:48;9;9;
79590;PMS5003;69070;51.598;-3.776;2023-04-05T22:02:14;11;9;
79590;PMS5003;69070;51.598;-3.776;2023-04-05T22:04:39;8;8;
79590;PMS5003;69070;51.598;-3.776;2023-04-05T22:07:04;9;8;
79590;PMS5003;69070;51.598;-3.776;2023-04-05T22:09:29;8;8;
79590;PMS5003;69070;51.598;-3.776;2023-04-05T22:11:54;11;9;
79590;PMS5003;69070;51.598;-3.776;2023-04-05T22:14:19;8;8;
79590;PMS5003;69070;51.598;-3.776;2023-04-05T22:16:44;9;8;
79590;PMS5003;69070;51.598;-3.776;2023-04-05T22:19:09;7;7;
79590;PMS5003;69070;51.598;-3.776;2023-04-05T22:21:34;9;9;
79590;PMS5003;69070;51.598;-3.776;2023-04-05T22:23:59;7;7;
79590;PMS5003;69070;51.598;-3.776;2023-04-05T22:26:25;8;7;
79590;PMS5003;69070;51.598;-3.776;2023-04-05T22:28:50;6;6;
79590;PMS5003;69070;51.598;-3.776;2023-04-05T22:31:15;8;6;
79590;PMS5003;69070;51.598;-3.776;2023-04-05T22:33:40;7;7;
79590;PMS5003;69070;51.598;-3.776;2023-04-05T22:36:06;7;6;
79590;PMS5003;69070;51.598;-3.776;2023-04-05T22:38:30;6;6;
79590;PMS5003;69070;51.598;-3.776;2023-04-05T22:40:55;7;6;
79590;PMS5003;69070;51.598;-3.776;2023-04-05T22:43:21;8;8;
79590;PMS5003;69070;51.598;-3.776;2023-04-05T22:45:46;7;7;
79590;PMS5003;69070;51.598;-3.776;2023-04-05T22:48:12;8;8;
79590;PMS5003;69070;51.598;-3.776;2023-04-05T22:50:37;7;7;
79590;PMS5003;69070;51.598;-3.776;2023-04-05T22:53:02;7;7;
79590;PMS5003;69070;51.598;-3.776;2023-04-05T22:55:27;7;7;
79590;PMS5003;69070;51.598;-3.776;2023-04-05T22:57:52;5;5;
79590;PMS5003;69070;51.598;-3.776;2023-04-05T23:00:17;11;8;
79590;PMS5003;69070;51.598;-3.776;2023-04-05T23:02:42;7;7;
79590;PMS5003;69070;51.598;-3.776;2023-04-05T23:05:08;6;6;
79590;PMS5003;69070;51.598;-3.776;2023-04-05T23:07:32;9;8;
79590;PMS5003;69070;51.598;-3.776;2023-04-05T23:09:58;6;6;
79590;PMS5003;69070;51.598;-3.776;2023-04-05T23:12:23;10;10;
79590;PMS5003;69070;51.598;-3.776;2023-04-05T23:14:48;10;7;
79590;PMS5003;69070;51.598;-3.776;2023-04-05T23:17:13;10;8;
79590;PMS5003;69070;51.598;-3.776;2023-04-05T23:19:39;8;7;
79590;PMS5003;69070;51.598;-3.776;2023-04-05T23:22:04;10;10;
79590;PMS5003;69070;51.598;-3.776;2023-04-05T23:24:29;8;8;
79590;PMS5003;69070;51.598;-3.776;2023-04-05T23:26:54;8;7;
79590;PMS5003;69070;51.598;-3.776;2023-04-05T23:29:19;8;8;
79590;PMS5003;69070;51.598;-3.776;2023-04-05T23:31:44;7;6;
79590;PMS5003;69070;51.598;-3.776;2023-04-05T23:34:09;6;6;
79590;PMS5003;69070;51.598;-3.776;2023-04-05T23:36:34;8;8;
79590;PMS5003;69070;51.598;-3.776;2023-04-05T23:38:59;7;7;
79590;PMS5003;69070;51.598;-3.776;2023-04-05T23:41:25;6;6;
79590;PMS5003;69070;51.598;-3.776;2023-04-05T23:43:50;7;7;
79590;PMS5003;69070;51.598;-3.776;2023-04-05T23:46:15;6;6;
79590;PMS5003;69070;51.598;-3.776;2023-04-05T23:48:41;7;6;
79590;PMS5003;69070;51.598;-3.776;2023-04-05T23:51:06;7;7;
79590;PMS5003;69070;51.598;-3.776;2023-04-05T23:53:31;8;8;
79590;PMS5003;69070;51.598;-3.776;2023-04-05T23:55:56;6;6;
79590;PMS5003;69070;51.598;-3.776;2023-04-05T23:58:22;6;6;
